Pagrindinis puslapis
METAR-TAF:

METAR-TAF

Oro uostai :

Bryan, Teksasas, Jungtinės Amerikos Valstijos

platuma: 30-42-56N, ilguma: 096-19-53W, Aukštis: 112 m

Dabartinis oras

Ataskaita buvo paskelbta 15 minutes, ne 22:55 UTC
Vėjas 15 kt iš Pietų su gūsio iki 27 kt
Temperatūra 29°C
Drėgmė 58%
Slėgis 1010 hPa
Matomumas: 16.1 km
Su prošvaistėmis ne aukštis 4000 ft

METAR: KCFD 082255Z AUTO 17015G27KT 10SM BKN040 29/20 A2983 RMK AO2 T02920201

Laikas: 17:10 (23:10 UTC)


TAF: trūkstamas

Orai ataskaitas ir orų prognozės (METAR, TAF).

turimą stotys yra geltonos ir raudonos taškus žemėlapyje.

Perkelti pele per norėdami pamatyti stoties vardą.

Tada spustelėkite, norėdami matyti oro stebėjimo ir prognozės.

Norėdami pakeisti žemėlapį: spustelėkite ant žalios mygtukų su juodo kryžiaus žemyn,; žalią mygtuką su brūkšneliu, jei norite nutolinti; arba žalių rodyklių gretimoms žemėlapius.


METAR-TAF: